Time;durP1;ratioP1;P1;durP2;ratioP2;P2;SDS_P1;SDS_P2;PMS_P1;PMS_P2;Temp;Humidity;BMP_temperature;BMP_pressure;BME280_temperature;BME280_humidity;BME280_pressure;Samples;Min_cycle;Max_cycle;Signal;HPM_P1;HPM_P2
2023/08/03 00:01:02;;;;;;;7.97;3.05;;;27.50;96.70;;;;;;5064867;28;20585;-74
2023/08/03 00:03:31;;;;;;;6.53;2.65;;;27.40;96.70;;;;;;5051764;28;20041;-74
2023/08/03 00:05:59;;;;;;;7.13;3.03;;;27.50;96.70;;;;;;5062116;28;20040;-74
2023/08/03 00:08:27;;;;;;;5.68;3.00;;;27.50;96.70;;;;;;5061409;28;20037;-74
2023/08/03 00:10:55;;;;;;;8.15;3.17;;;27.50;96.70;;;;;;5064860;28;20040;-74
2023/08/03 00:13:24;;;;;;;5.38;2.67;;;27.50;96.70;;;;;;5062161;28;20142;-74
2023/08/03 00:15:53;;;;;;;8.90;3.25;;;27.50;96.70;;;;;;5067427;28;20580;-74
2023/08/03 00:18:22;;;;;;;5.68;3.15;;;27.50;96.70;;;;;;5046553;28;20506;-74
2023/08/03 00:20:50;;;;;;;6.57;3.50;;;27.40;96.70;;;;;;5064545;28;20056;-74
2023/08/03 00:23:18;;;;;;;5.18;2.90;;;27.40;96.70;;;;;;5063007;28;20055;-74
2023/08/03 00:25:46;;;;;;;6.03;2.78;;;27.40;96.70;;;;;;5064624;28;20090;-74
2023/08/03 00:28:14;;;;;;;6.13;3.00;;;27.30;96.70;;;;;;5062007;28;20041;-74
2023/08/03 00:30:43;;;;;;;7.18;3.33;;;27.40;96.70;;;;;;5062720;28;20057;-74
2023/08/03 00:33:12;;;;;;;5.65;2.90;;;27.40;96.70;;;;;;5045951;28;20040;-73
2023/08/03 00:35:41;;;;;;;3.90;2.53;;;27.50;96.70;;;;;;5062176;28;20562;-74
2023/08/03 00:38:09;;;;;;;5.78;2.45;;;27.50;96.70;;;;;;5062652;28;20155;-74
2023/08/03 00:40:37;;;;;;;8.00;3.42;;;27.50;96.70;;;;;;5046668;28;20044;-74
2023/08/03 00:43:05;;;;;;;6.18;2.78;;;27.40;96.70;;;;;;5044795;28;20044;-74
2023/08/03 00:45:33;;;;;;;7.20;2.65;;;27.50;96.70;;;;;;5064227;28;20051;-74
2023/08/03 00:48:02;;;;;;;5.13;2.85;;;27.40;96.70;;;;;;5062082;28;20165;-74
2023/08/03 00:50:31;;;;;;;5.85;2.88;;;27.30;96.70;;;;;;5055252;28;20056;-75
2023/08/03 00:53:00;;;;;;;4.55;2.72;;;27.20;96.70;;;;;;5062597;28;20604;-74
2023/08/03 00:55:28;;;;;;;6.88;3.05;;;27.20;96.70;;;;;;5064178;28;20131;-74
2023/08/03 00:57:56;;;;;;;6.68;3.20;;;27.30;96.70;;;;;;5061910;28;20582;-74
2023/08/03 01:00:24;;;;;;;5.25;2.97;;;27.30;96.70;;;;;;5061111;28;20094;-74
2023/08/03 01:02:52;;;;;;;3.97;2.45;;;27.20;96.70;;;;;;5061901;28;20504;-74
2023/08/03 01:05:21;;;;;;;7.60;3.05;;;27.20;96.70;;;;;;5045409;28;20048;-74
2023/08/03 01:07:52;;;;;;;6.05;3.08;;;27.30;96.70;;;;;;5061975;28;20167;-74
2023/08/03 01:10:20;;;;;;;8.70;3.35;;;27.20;96.70;;;;;;5044929;28;20421;-73
2023/08/03 01:12:49;;;;;;;7.38;3.13;;;27.20;96.70;;;;;;5043617;28;20052;-74
2023/08/03 01:15:18;;;;;;;4.45;2.65;;;27.20;96.70;;;;;;5061932;28;20383;-74
2023/08/03 01:17:46;;;;;;;5.50;3.33;;;27.30;96.70;;;;;;5043532;28;20121;-74
2023/08/03 01:20:16;;;;;;;6.65;2.92;;;27.20;96.70;;;;;;5061667;28;20563;-73
2023/08/03 01:22:46;;;;;;;5.50;2.88;;;27.10;96.70;;;;;;5063088;28;20375;-73
2023/08/03 01:25:15;;;;;;;6.88;2.95;;;27.20;96.70;;;;;;5061351;28;20413;-74
2023/08/03 01:27:47;;;;;;;5.28;2.55;;;27.20;96.70;;;;;;5078133;28;20036;-74
2023/08/03 01:30:15;;;;;;;5.82;2.75;;;27.20;96.70;;;;;;5061257;28;20091;-73
2023/08/03 01:32:43;;;;;;;10.35;3.20;;;27.20;96.70;;;;;;5060472;28;20097;-74
2023/08/03 01:35:12;;;;;;;6.75;3.38;;;27.10;96.70;;;;;;5063588;28;20068;-74
2023/08/03 01:37:40;;;;;;;4.70;2.30;;;27.10;96.70;;;;;;5061772;28;20086;-74
2023/08/03 01:40:11;;;;;;;6.60;2.97;;;27.10;96.70;;;;;;5061287;28;20570;-74
2023/08/03 01:42:39;;;;;;;4.80;2.75;;;27.00;96.70;;;;;;5058967;28;20090;-74
2023/08/03 01:45:08;;;;;;;6.47;3.30;;;27.00;96.70;;;;;;5062485;28;20101;-74
2023/08/03 01:47:36;;;;;;;6.70;2.90;;;27.00;96.70;;;;;;5063275;28;20040;-74
2023/08/03 01:50:05;;;;;;;4.25;2.70;;;26.80;96.70;;;;;;5061509;28;20101;-74
2023/08/03 01:52:34;;;;;;;5.10;2.80;;;26.90;96.70;;;;;;5041909;28;20041;-74
2023/08/03 01:55:03;;;;;;;5.03;3.03;;;27.00;96.70;;;;;;5049540;28;20925;-73
2023/08/03 01:57:33;;;;;;;6.38;2.85;;;27.00;96.70;;;;;;5061566;28;20047;-74
2023/08/03 02:00:02;;;;;;;6.15;2.30;;;26.90;96.70;;;;;;5057483;28;20052;-74
2023/08/03 02:02:39;;;;;;;6.93;2.83;;;26.80;96.70;;;;;;5061116;28;20052;-74
2023/08/03 02:05:09;;;;;;;5.15;3.00;;;26.70;96.70;;;;;;5062468;28;20413;-74
2023/08/03 02:07:43;;;;;;;6.55;2.70;;;26.70;96.70;;;;;;5061814;28;20048;-74
2023/08/03 02:10:12;;;;;;;5.30;2.58;;;26.80;96.70;;;;;;5061505;28;20044;-74
2023/08/03 02:12:42;;;;;;;4.65;2.70;;;26.80;96.70;;;;;;5066366;28;20037;-73
2023/08/03 02:15:10;;;;;;;5.10;2.60;;;26.90;96.70;;;;;;5064657;28;20045;-73
2023/08/03 02:17:39;;;;;;;6.32;2.60;;;27.00;96.70;;;;;;5066634;28;20045;-73
2023/08/03 02:20:08;;;;;;;3.85;2.78;;;27.00;96.70;;;;;;5064363;28;20044;-73
2023/08/03 02:22:36;;;;;;;4.45;2.53;;;27.00;96.70;;;;;;5065429;28;20470;-72
2023/08/03 02:25:05;;;;;;;5.00;3.00;;;27.00;96.70;;;;;;5065104;28;20487;-73
2023/08/03 02:27:33;;;;;;;7.28;3.45;;;27.00;96.70;;;;;;5066363;28;20040;-74
2023/08/03 02:30:04;;;;;;;6.00;2.60;;;27.00;96.70;;;;;;5065580;28;20119;-73
2023/08/03 02:32:37;;;;;;;6.70;2.90;;;26.90;96.70;;;;;;5065048;28;20067;-74
2023/08/03 02:35:06;;;;;;;5.82;3.20;;;27.00;96.70;;;;;;5048780;28;20049;-73
2023/08/03 02:37:35;;;;;;;5.30;2.33;;;27.00;96.70;;;;;;5048865;28;20097;-74
2023/08/03 02:40:11;;;;;;;3.88;2.25;;;27.10;96.70;;;;;;5048551;28;20596;-73
2023/08/03 02:42:40;;;;;;;4.80;2.38;;;27.10;96.70;;;;;;5048923;28;20143;-74
2023/08/03 02:45:11;;;;;;;4.47;2.55;;;27.10;96.70;;;;;;5048262;28;20155;-74
2023/08/03 02:47:40;;;;;;;5.80;2.92;;;27.00;96.70;;;;;;5065003;28;20464;-74
2023/08/03 02:50:09;;;;;;;6.03;2.58;;;27.00;96.70;;;;;;5066013;28;20054;-73
2023/08/03 02:52:38;;;;;;;5.75;2.97;;;26.90;96.70;;;;;;5064154;28;20048;-75
2023/08/03 02:55:08;;;;;;;7.40;3.22;;;27.00;96.70;;;;;;5050322;28;20090;-73
2023/08/03 02:57:38;;;;;;;5.70;2.78;;;26.90;96.70;;;;;;5064617;28;20148;-74
2023/08/03 03:00:12;;;;;;;5.28;3.30;;;26.90;96.70;;;;;;5057064;28;20453;-74
2023/08/03 03:02:42;;;;;;;5.65;2.50;;;26.80;96.70;;;;;;5048639;28;20045;-74
2023/08/03 03:05:14;;;;;;;6.60;2.80;;;26.80;96.70;;;;;;5065354;28;20052;-74
2023/08/03 03:07:46;;;;;;;3.75;2.50;;;26.80;96.70;;;;;;5048437;28;20600;-74
2023/08/03 03:10:15;;;;;;;5.75;2.70;;;26.80;96.70;;;;;;5064577;28;20044;-74
2023/08/03 03:12:43;;;;;;;2.88;2.40;;;26.80;96.70;;;;;;5065679;28;20048;-74
2023/08/03 03:15:14;;;;;;;6.70;2.92;;;26.70;96.70;;;;;;5047492;28;20048;-74
2023/08/03 03:17:43;;;;;;;5.32;2.90;;;26.70;96.70;;;;;;5080726;28;20044;-74
2023/08/03 03:20:13;;;;;;;6.30;2.60;;;26.80;96.70;;;;;;5048040;28;20611;-74
2023/08/03 03:22:43;;;;;;;5.45;2.63;;;26.80;96.70;;;;;;5047189;28;20410;-74
2023/08/03 03:25:11;;;;;;;4.95;2.78;;;26.80;96.70;;;;;;5064171;28;20131;-74
2023/08/03 03:27:39;;;;;;;7.82;3.03;;;26.70;96.70;;;;;;5063506;28;20049;-74
2023/08/03 03:30:09;;;;;;;5.13;2.80;;;26.70;96.70;;;;;;5063775;28;20044;-74
2023/08/03 03:32:40;;;;;;;7.03;3.03;;;26.60;96.70;;;;;;5047580;28;20695;-74
2023/08/03 03:35:08;;;;;;;4.13;2.75;;;26.50;96.70;;;;;;5065223;28;20595;-75
2023/08/03 03:37:36;;;;;;;5.25;2.78;;;26.60;96.70;;;;;;5047405;28;20071;-74
2023/08/03 03:40:07;;;;;;;5.90;3.10;;;26.50;96.70;;;;;;5079135;28;20052;-74
2023/08/03 03:42:41;;;;;;;5.07;2.60;;;26.50;96.70;;;;;;5048750;28;20772;-74
2023/08/03 03:45:10;;;;;;;4.82;2.85;;;26.50;96.70;;;;;;5062747;28;20049;-73
2023/08/03 03:47:41;;;;;;;4.95;2.30;;;26.50;96.70;;;;;;5045207;28;20045;-73
2023/08/03 03:50:11;;;;;;;5.38;3.08;;;26.50;96.70;;;;;;5063847;28;20052;-74
2023/08/03 03:52:39;;;;;;;5.05;2.50;;;26.50;96.70;;;;;;5066046;28;20036;-80
2023/08/03 03:55:09;;;;;;;6.35;2.83;;;26.50;96.70;;;;;;5048023;28;20546;-80
2023/08/03 03:57:39;;;;;;;6.28;2.60;;;26.40;96.70;;;;;;5064201;28;20122;-79
2023/08/03 04:00:08;;;;;;;7.55;2.83;;;26.40;96.70;;;;;;5062947;28;20044;-79
2023/08/03 04:02:44;;;;;;;6.35;2.63;;;26.40;96.70;;;;;;5065534;28;20048;-80
2023/08/03 04:05:18;;;;;;;6.70;2.78;;;26.40;96.70;;;;;;5063120;28;20103;-79
2023/08/03 04:07:46;;;;;;;4.90;2.97;;;26.40;96.70;;;;;;5063998;28;20056;-79
2023/08/03 04:10:15;;;;;;;5.43;3.10;;;26.40;96.70;;;;;;5063170;28;20314;-80
2023/08/03 04:12:43;;;;;;;3.97;2.72;;;26.40;96.70;;;;;;5046900;28;20040;-80
2023/08/03 04:15:11;;;;;;;5.47;2.83;;;26.30;96.70;;;;;;5063538;28;20476;-79
2023/08/03 04:17:39;;;;;;;9.43;3.38;;;26.40;96.70;;;;;;5046651;28;20135;-80
2023/08/03 04:20:14;;;;;;;5.60;3.22;;;26.30;96.70;;;;;;5062689;28;20419;-79
2023/08/03 04:22:42;;;;;;;5.95;3.00;;;26.30;96.70;;;;;;5061107;28;20113;-79
2023/08/03 04:25:15;;;;;;;5.38;2.78;;;26.30;96.70;;;;;;5062097;28;20139;-79
2023/08/03 04:27:49;;;;;;;5.15;2.83;;;26.30;96.70;;;;;;5071108;28;20040;-80
2023/08/03 04:30:22;;;;;;;6.07;3.30;;;26.40;96.70;;;;;;5045988;28;20141;-80
2023/08/03 04:32:51;;;;;;;4.20;2.80;;;26.40;96.70;;;;;;5061791;28;20048;-79
2023/08/03 04:35:21;;;;;;;4.38;2.80;;;26.40;96.70;;;;;;5063120;28;20051;-79
2023/08/03 04:37:54;;;;;;;4.20;2.40;;;26.50;96.70;;;;;;5061584;28;20048;-80
2023/08/03 04:40:23;;;;;;;7.13;3.10;;;26.50;96.70;;;;;;5061963;28;20056;-79
2023/08/03 04:42:51;;;;;;;4.82;2.50;;;26.40;96.70;;;;;;5062983;28;20067;-79
2023/08/03 04:45:20;;;;;;;10.80;3.00;;;26.20;96.70;;;;;;5062691;28;20048;-79
2023/08/03 04:47:49;;;;;;;6.57;2.90;;;26.20;96.70;;;;;;5062895;28;20068;-80
2023/08/03 04:50:19;;;;;;;7.78;2.67;;;26.30;96.70;;;;;;5074294;28;20037;-80
2023/08/03 04:52:48;;;;;;;6.25;2.88;;;26.30;96.70;;;;;;5062647;28;20064;-80
2023/08/03 04:55:20;;;;;;;5.82;3.00;;;26.40;96.70;;;;;;5055601;28;20076;-79
2023/08/03 04:57:48;;;;;;;6.88;3.10;;;26.40;96.70;;;;;;5062504;28;20044;-79
2023/08/03 05:00:19;;;;;;;5.55;2.75;;;26.40;96.70;;;;;;5062655;28;20036;-81
2023/08/03 05:02:50;;;;;;;6.07;3.03;;;26.40;96.70;;;;;;5046882;28;20654;-80
2023/08/03 05:05:18;;;;;;;5.68;3.08;;;26.40;96.70;;;;;;5062036;28;20462;-80
2023/08/03 05:07:49;;;;;;;5.18;3.15;;;26.40;96.70;;;;;;5046540;28;20056;-80
2023/08/03 05:10:22;;;;;;;5.28;2.80;;;26.50;96.70;;;;;;5063285;28;20049;-82
2023/08/03 05:12:50;;;;;;;6.53;3.20;;;26.50;96.70;;;;;;5062789;28;20043;-80
2023/08/03 05:15:19;;;;;;;5.90;2.83;;;26.60;96.70;;;;;;5062446;28;20056;-79
2023/08/03 05:17:49;;;;;;;6.68;3.20;;;26.60;96.70;;;;;;5062020;28;20056;-80
2023/08/03 05:20:18;;;;;;;9.05;2.80;;;26.60;96.70;;;;;;5062270;28;21225;-80
2023/08/03 05:22:46;;;;;;;5.45;3.22;;;26.60;96.70;;;;;;5042725;28;20075;-79
2023/08/03 05:25:15;;;;;;;5.50;3.10;;;26.60;96.70;;;;;;5060678;28;20139;-80
2023/08/03 05:27:44;;;;;;;4.85;2.80;;;26.70;96.70;;;;;;5039393;28;20049;-79
2023/08/03 05:30:12;;;;;;;6.72;3.70;;;26.80;96.70;;;;;;5059854;28;20152;-79
2023/08/03 05:32:40;;;;;;;6.65;3.17;;;26.80;96.70;;;;;;5057511;28;20397;-81
2023/08/03 05:35:10;;;;;;;8.13;3.55;;;26.80;96.70;;;;;;5062343;28;20482;-80
2023/08/03 05:37:39;;;;;;;10.38;4.28;;;26.80;96.70;;;;;;5062318;28;20045;-80
2023/08/03 05:40:08;;;;;;;6.22;3.00;;;26.70;96.70;;;;;;5063941;28;20040;-78
2023/08/03 05:42:40;;;;;;;5.13;2.80;;;26.80;96.70;;;;;;5063102;28;20036;-80
2023/08/03 05:45:13;;;;;;;6.38;2.85;;;26.90;96.70;;;;;;5072316;28;20470;-82
2023/08/03 05:47:41;;;;;;;5.72;2.92;;;26.80;96.70;;;;;;5051365;28;20061;-81
2023/08/03 05:50:13;;;;;;;6.60;3.00;;;26.80;96.70;;;;;;5051382;28;20048;-81
2023/08/03 05:52:42;;;;;;;7.40;2.88;;;26.60;96.70;;;;;;5068026;28;20041;-81
2023/08/03 05:55:12;;;;;;;5.28;2.53;;;26.70;96.70;;;;;;5050557;28;20040;-82
2023/08/03 05:57:41;;;;;;;4.85;2.78;;;26.70;96.70;;;;;;5067833;28;20049;-82
2023/08/03 06:00:17;;;;;;;4.28;2.90;;;26.70;96.70;;;;;;5066414;28;20032;-79
2023/08/03 06:02:46;;;;;;;6.35;2.80;;;26.80;96.70;;;;;;5063647;28;20049;-78
2023/08/03 06:05:42;;;;;;;5.10;2.95;;;26.80;96.70;;;;;;5065623;28;20053;-78
2023/08/03 06:08:15;;;;;;;7.45;2.72;;;26.80;96.70;;;;;;5069288;28;20032;-79
2023/08/03 06:10:44;;;;;;;7.15;2.80;;;26.80;96.70;;;;;;5069308;28;20055;-79
2023/08/03 06:13:15;;;;;;;7.65;2.80;;;26.80;96.70;;;;;;5071626;28;20434;-79
2023/08/03 06:15:45;;;;;;;5.43;2.55;;;26.80;96.70;;;;;;5061802;28;20088;-80
2023/08/03 06:18:15;;;;;;;5.35;2.75;;;26.80;96.70;;;;;;5067725;28;20468;-81
2023/08/03 06:20:47;;;;;;;5.85;3.08;;;26.80;96.70;;;;;;5067241;28;20036;-79
2023/08/03 06:23:18;;;;;;;4.88;2.75;;;26.70;96.70;;;;;;5066138;28;20051;-82
2023/08/03 06:25:47;;;;;;;5.53;3.40;;;26.70;96.70;;;;;;5081859;28;20181;-80
2023/08/03 06:28:18;;;;;;;5.40;2.90;;;26.80;96.70;;;;;;5057796;28;20118;-84
2023/08/03 06:30:47;;;;;;;7.60;3.00;;;26.80;96.70;;;;;;5049610;28;20497;-81
2023/08/03 06:33:18;;;;;;;5.85;3.33;;;26.70;96.70;;;;;;5067067;28;20072;-81
2023/08/03 06:35:47;;;;;;;4.97;3.00;;;26.90;96.70;;;;;;5070203;28;20560;-82
2023/08/03 06:38:18;;;;;;;5.28;3.15;;;27.00;96.70;;;;;;5066720;28;20114;-80
2023/08/03 06:40:47;;;;;;;5.93;3.67;;;27.10;96.70;;;;;;5066507;28;20118;-80
2023/08/03 06:43:17;;;;;;;5.75;3.10;;;27.20;96.70;;;;;;5065786;28;20094;-80
2023/08/03 06:45:45;;;;;;;6.00;3.25;;;27.20;96.70;;;;;;5065442;28;20517;-80
2023/08/03 06:48:15;;;;;;;6.13;2.90;;;27.30;96.70;;;;;;5065499;28;20605;-81
2023/08/03 06:50:44;;;;;;;7.43;2.92;;;27.40;96.70;;;;;;5065399;28;20147;-79
2023/08/03 06:53:12;;;;;;;4.70;2.88;;;27.50;96.70;;;;;;5065347;28;20076;-79
2023/08/03 06:55:41;;;;;;;6.93;2.92;;;27.50;96.70;;;;;;5067262;28;20398;-80
2023/08/03 06:58:09;;;;;;;6.22;3.38;;;27.60;96.70;;;;;;5065120;28;20202;-82
2023/08/03 07:00:41;;;;;;;5.13;2.95;;;27.60;96.70;;;;;;5067040;28;20687;-82
2023/08/03 07:03:09;;;;;;;8.15;3.30;;;27.60;96.70;;;;;;5065171;28;20498;-81
2023/08/03 07:05:38;;;;;;;6.75;3.03;;;27.60;96.70;;;;;;5065564;28;20082;-82
2023/08/03 07:08:07;;;;;;;6.85;3.60;;;27.60;96.70;;;;;;5065985;28;20139;-80
2023/08/03 07:10:36;;;;;;;11.95;3.80;;;27.50;96.70;;;;;;5066706;28;20049;-81
2023/08/03 07:13:05;;;;;;;9.70;3.83;;;27.50;96.70;;;;;;5066350;28;20044;-81
2023/08/03 07:15:34;;;;;;;11.13;3.50;;;27.60;96.70;;;;;;5066516;28;20126;-79
2023/08/03 07:18:06;;;;;;;6.40;3.05;;;27.60;96.70;;;;;;5066469;28;20076;-81
2023/08/03 07:20:34;;;;;;;6.25;2.83;;;27.70;96.70;;;;;;5064133;28;20044;-82
2023/08/03 07:23:05;;;;;;;9.48;3.58;;;27.80;96.70;;;;;;5066180;28;20059;-82
2023/08/03 07:25:33;;;;;;;6.15;3.00;;;27.80;96.70;;;;;;5065989;28;20090;-81
2023/08/03 07:28:02;;;;;;;6.72;3.47;;;27.80;96.70;;;;;;5064751;28;20048;-81
2023/08/03 07:30:30;;;;;;;9.65;3.35;;;27.80;96.70;;;;;;5064947;28;20048;-82
2023/08/03 07:33:00;;;;;;;7.15;3.08;;;27.90;96.70;;;;;;5065532;28;20053;-81
2023/08/03 07:35:29;;;;;;;10.48;3.72;;;27.90;96.70;;;;;;5049268;28;20456;-81
2023/08/03 07:37:58;;;;;;;9.80;2.95;;;28.00;96.70;;;;;;5066744;28;20047;-82
2023/08/03 07:40:26;;;;;;;7.60;3.17;;;28.10;96.70;;;;;;5065956;28;20040;-81
2023/08/03 07:42:54;;;;;;;7.05;2.75;;;28.20;96.70;;;;;;5065651;28;20049;-80
2023/08/03 07:45:23;;;;;;;6.72;2.80;;;28.30;96.70;;;;;;5064068;28;20044;-80
2023/08/03 07:47:54;;;;;;;5.95;2.72;;;28.30;96.70;;;;;;5064721;28;20045;-81
2023/08/03 07:50:23;;;;;;;5.80;3.13;;;28.20;96.70;;;;;;5066031;28;20537;-81
2023/08/03 07:52:53;;;;;;;7.00;2.85;;;28.20;96.70;;;;;;5066155;28;20123;-80
2023/08/03 07:55:21;;;;;;;5.95;2.78;;;28.30;96.70;;;;;;5064137;28;20508;-79
2023/08/03 07:57:50;;;;;;;6.50;2.60;;;28.30;96.70;;;;;;5065354;28;20101;-80
2023/08/03 08:00:20;;;;;;;6.68;2.75;;;28.40;96.70;;;;;;5065006;28;20735;-81
2023/08/03 08:02:49;;;;;;;6.88;3.03;;;28.60;96.70;;;;;;5065757;28;20044;-80
2023/08/03 08:05:17;;;;;;;5.78;2.70;;;28.80;96.70;;;;;;5063791;28;20519;-81
2023/08/03 08:07:46;;;;;;;6.55;2.60;;;28.90;96.70;;;;;;5066388;28;20052;-82
2023/08/03 08:10:16;;;;;;;8.60;2.80;;;29.00;96.70;;;;;;5039284;28;20449;-82
2023/08/03 08:12:44;;;;;;;6.20;3.08;;;29.00;96.70;;;;;;5065779;28;20044;-81
2023/08/03 08:15:16;;;;;;;6.32;2.38;;;29.10;96.70;;;;;;5064844;28;20037;-80
2023/08/03 08:17:44;;;;;;;7.95;2.83;;;29.20;96.70;;;;;;5065162;28;20120;-79
2023/08/03 08:20:13;;;;;;;7.30;2.67;;;29.30;96.70;;;;;;5044102;28;20140;-81
2023/08/03 08:22:41;;;;;;;7.20;2.92;;;29.30;96.70;;;;;;5062223;28;20037;-81
2023/08/03 08:25:10;;;;;;;4.28;2.65;;;29.30;96.70;;;;;;5065126;28;20114;-81
2023/08/03 08:27:40;;;;;;;6.43;3.25;;;29.30;96.70;;;;;;5047723;28;20560;-82
2023/08/03 08:30:09;;;;;;;7.53;2.97;;;29.30;96.70;;;;;;5065291;28;20040;-81
2023/08/03 08:32:38;;;;;;;5.95;2.95;;;29.40;96.70;;;;;;5065004;28;20359;-81
2023/08/03 08:35:07;;;;;;;6.68;2.80;;;29.40;96.70;;;;;;5064694;28;20044;-81
2023/08/03 08:37:35;;;;;;;5.13;3.05;;;29.40;96.70;;;;;;5065247;28;20068;-81
2023/08/03 08:40:05;;;;;;;5.03;3.15;;;29.50;96.70;;;;;;5063653;28;20049;-81
2023/08/03 08:42:34;;;;;;;9.27;3.15;;;29.50;96.70;;;;;;5063756;28;20095;-81
2023/08/03 08:45:05;;;;;;;6.55;3.00;;;29.60;96.70;;;;;;5063661;28;20098;-80
2023/08/03 08:47:35;;;;;;;7.38;3.08;;;29.70;96.70;;;;;;5064105;28;20241;-80
2023/08/03 08:50:04;;;;;;;7.20;2.90;;;29.70;96.70;;;;;;5063555;28;20075;-81
2023/08/03 08:52:36;;;;;;;5.18;2.63;;;29.80;96.70;;;;;;5063185;28;20055;-81
2023/08/03 08:55:13;;;;;;;6.53;3.38;;;29.70;96.70;;;;;;5049291;28;20053;-82
2023/08/03 08:58:02;;;;;;;9.60;3.25;;;29.70;96.70;;;;;;5056972;28;20045;-81
2023/08/03 09:00:43;;;;;;;6.47;2.80;;;29.70;96.70;;;;;;5063393;28;20484;-79
2023/08/03 09:03:12;;;;;;;5.05;2.80;;;29.80;96.70;;;;;;5064817;28;20609;-79
2023/08/03 09:05:40;;;;;;;5.18;2.95;;;29.90;96.70;;;;;;5064182;28;20085;-80
2023/08/03 09:08:13;;;;;;;5.72;2.78;;;29.90;96.70;;;;;;5064599;28;20037;-81
2023/08/03 09:10:49;;;;;;;5.68;2.72;;;29.90;96.70;;;;;;5063620;28;20048;-81
2023/08/03 09:13:28;;;;;;;6.53;3.25;;;29.90;96.70;;;;;;5062611;28;20056;-80
2023/08/03 09:15:58;;;;;;;6.10;2.80;;;29.90;96.70;;;;;;5061980;28;20063;-80
2023/08/03 09:18:29;;;;;;;11.02;3.33;;;29.80;96.70;;;;;;5062785;28;20052;-81
2023/08/03 09:21:15;;;;;;;4.20;2.45;;;29.90;96.70;;;;;;5063080;28;20044;-81
2023/08/03 09:23:47;;;;;;;5.90;3.10;;;30.00;96.70;;;;;;5062807;28;20068;-81
2023/08/03 09:26:22;;;;;;;6.43;2.63;;;29.90;96.70;;;;;;5063074;28;20513;-80
2023/08/03 09:28:53;;;;;;;8.43;3.35;;;30.00;96.70;;;;;;5059178;28;20594;-81
2023/08/03 09:31:25;;;;;;;6.70;2.75;;;30.10;96.70;;;;;;5060667;28;20123;-80
2023/08/03 09:33:59;;;;;;;5.35;2.58;;;30.30;96.70;;;;;;5062543;28;20479;-81
2023/08/03 09:36:28;;;;;;;4.05;2.72;;;30.50;96.70;;;;;;5056844;28;21292;-82
2023/08/03 09:39:12;;;;;;;7.35;3.33;;;30.60;96.70;;;;;;5064821;28;20075;-82
2023/08/03 09:41:45;;;;;;;5.88;2.50;;;30.50;96.70;;;;;;5063505;28;20032;-82
2023/08/03 09:44:17;;;;;;;6.40;2.97;;;30.40;96.70;;;;;;5063317;28;20486;-81
2023/08/03 09:46:49;;;;;;;8.25;3.50;;;30.20;96.70;;;;;;5046297;28;21013;-81
2023/08/03 09:49:18;;;;;;;6.15;3.40;;;30.20;96.70;;;;;;5062111;28;20052;-79
2023/08/03 09:51:49;;;;;;;6.20;3.10;;;30.20;96.70;;;;;;5042740;28;20044;-79
2023/08/03 09:54:27;;;;;;;9.95;3.70;;;30.30;96.70;;;;;;5062786;28;20147;-82
2023/08/03 09:57:00;;;;;;;6.22;3.50;;;30.60;96.70;;;;;;5062656;28;20044;-81
2023/08/03 09:59:35;;;;;;;6.23;3.13;;;30.50;96.70;;;;;;5062496;28;20051;-81
2023/08/03 10:02:09;;;;;;;7.57;3.40;;;30.50;96.70;;;;;;5057665;28;20110;-80
2023/08/03 10:04:42;;;;;;;6.20;3.55;;;30.50;96.70;;;;;;5043481;28;20052;-79
2023/08/03 10:07:14;;;;;;;6.07;2.95;;;30.40;96.70;;;;;;5062131;28;20060;-79
2023/08/03 10:09:45;;;;;;;5.47;3.05;;;30.20;96.70;;;;;;5063547;28;20041;-80
2023/08/03 10:12:19;;;;;;;11.25;3.20;;;30.30;96.70;;;;;;5062048;28;20045;-81
2023/08/03 10:14:51;;;;;;;10.40;3.78;;;30.30;96.70;;;;;;5061701;28;20062;-79
2023/08/03 10:17:22;;;;;;;13.00;4.38;;;30.30;96.70;;;;;;5044902;28;20527;-80
2023/08/03 10:19:51;;;;;;;9.70;3.78;;;30.40;96.70;;;;;;5061638;28;20048;-79
2023/08/03 10:22:19;;;;;;;6.65;3.13;;;30.30;96.70;;;;;;5062332;28;20498;-80
2023/08/03 10:25:16;;;;;;;8.05;2.90;;;30.30;96.70;;;;;;5061735;28;20167;-79
2023/08/03 10:28:12;;;;;;;7.65;3.28;;;30.40;96.70;;;;;;5057852;28;20044;-79
2023/08/03 10:31:10;;;;;;;7.45;3.10;;;30.50;96.70;;;;;;5063115;28;20087;-80
2023/08/03 10:34:05;;;;;;;6.78;3.28;;;30.60;96.70;;;;;;5065071;28;20048;-81
2023/08/03 10:36:47;;;;;;;6.32;3.17;;;30.70;96.70;;;;;;5060363;28;20059;-81
2023/08/03 10:39:36;;;;;;;6.72;3.22;;;30.80;96.70;;;;;;5066177;28;20131;-80
2023/08/03 10:42:19;;;;;;;4.03;2.88;;;30.70;96.70;;;;;;5066666;28;20055;-80
2023/08/03 10:44:47;;;;;;;6.10;2.80;;;30.60;96.70;;;;;;5065611;28;20094;-80
2023/08/03 10:47:27;;;;;;;4.90;2.67;;;30.70;96.70;;;;;;5066742;28;20040;-80
2023/08/03 10:49:58;;;;;;;7.05;2.75;;;30.70;96.70;;;;;;5066236;28;20482;-80
2023/08/03 10:52:29;;;;;;;6.35;2.70;;;30.60;96.70;;;;;;5066090;28;20775;-79
2023/08/03 10:54:58;;;;;;;6.88;3.13;;;30.40;96.70;;;;;;5062061;28;20086;-81
2023/08/03 10:57:29;;;;;;;6.18;3.10;;;30.30;96.70;;;;;;5066160;28;20032;-81
2023/08/03 10:59:59;;;;;;;6.93;3.20;;;30.30;96.70;;;;;;5065711;28;20055;-81
2023/08/03 11:02:29;;;;;;;6.28;3.28;;;30.40;96.70;;;;;;5049070;28;20494;-79
2023/08/03 11:05:00;;;;;;;5.78;2.83;;;30.50;96.70;;;;;;5065199;28;20131;-81
2023/08/03 11:07:35;;;;;;;4.93;2.72;;;30.60;96.70;;;;;;5064294;28;20048;-77
2023/08/03 11:10:06;;;;;;;6.53;3.15;;;30.50;96.70;;;;;;5047432;28;20125;-80
2023/08/03 11:12:35;;;;;;;4.35;2.90;;;30.50;96.70;;;;;;5064012;28;20182;-78
2023/08/03 11:15:05;;;;;;;6.35;3.00;;;30.60;96.70;;;;;;5058277;28;20411;-80
2023/08/03 11:17:36;;;;;;;5.88;3.03;;;30.70;96.70;;;;;;5064233;28;20134;-78
2023/08/03 11:20:12;;;;;;;5.75;3.13;;;30.80;96.70;;;;;;5064477;28;20050;-78
2023/08/03 11:22:41;;;;;;;4.45;3.03;;;30.60;96.70;;;;;;5064846;28;20045;-78
2023/08/03 11:25:10;;;;;;;6.00;3.05;;;30.40;96.70;;;;;;5065668;28;20048;-80
2023/08/03 11:27:40;;;;;;;11.05;3.35;;;30.30;96.70;;;;;;5064150;28;20048;-79
2023/08/03 11:30:09;;;;;;;5.28;2.80;;;30.20;96.70;;;;;;5065031;28;20076;-81
2023/08/03 11:32:39;;;;;;;9.00;3.38;;;30.20;96.70;;;;;;5064998;28;20041;-80
2023/08/03 11:35:10;;;;;;;16.40;4.60;;;30.10;96.70;;;;;;5064563;28;20132;-81
2023/08/03 11:37:39;;;;;;;6.28;3.03;;;30.00;96.70;;;;;;5063953;28;20044;-77
2023/08/03 11:40:11;;;;;;;7.20;2.72;;;30.00;96.70;;;;;;5064493;28;20060;-77
2023/08/03 11:42:43;;;;;;;9.85;3.05;;;30.10;96.70;;;;;;5062983;28;20044;-78
2023/08/03 11:45:12;;;;;;;7.03;2.70;;;30.10;96.70;;;;;;5065138;28;20394;-79
2023/08/03 11:47:42;;;;;;;11.18;3.75;;;30.20;96.70;;;;;;5063866;28;20566;-78
2023/08/03 11:50:14;;;;;;;7.47;2.95;;;30.20;96.70;;;;;;5064360;28;20040;-77
2023/08/03 11:52:42;;;;;;;18.67;5.00;;;30.20;96.70;;;;;;5065694;28;20543;-77
2023/08/03 11:55:26;;;;;;;20.23;5.00;;;30.30;96.70;;;;;;5063593;28;20124;-76
2023/08/03 11:58:09;;;;;;;6.80;3.10;;;30.40;96.70;;;;;;5062896;28;20532;-77
2023/08/03 12:00:40;;;;;;;6.65;3.05;;;30.60;96.70;;;;;;5034112;28;20052;-77
2023/08/03 12:03:09;;;;;;;7.32;2.85;;;30.70;96.70;;;;;;5035655;28;20049;-79
2023/08/03 12:05:51;;;;;;;12.27;3.35;;;30.70;96.70;;;;;;5048129;28;20135;-79
2023/08/03 12:08:41;;;;;;;6.45;3.05;;;30.70;96.70;;;;;;5033379;28;20056;-79
2023/08/03 12:11:10;;;;;;;9.20;3.35;;;30.90;96.70;;;;;;5026687;28;20144;-80
2023/08/03 12:13:43;;;;;;;8.38;3.15;;;30.90;96.70;;;;;;5025636;28;20045;-78
2023/08/03 12:16:17;;;;;;;8.27;3.20;;;31.00;96.70;;;;;;5026577;28;20049;-79
2023/08/03 12:18:45;;;;;;;9.05;3.22;;;31.00;96.70;;;;;;5034691;28;20048;-80
2023/08/03 12:21:19;;;;;;;5.72;3.40;;;31.20;96.70;;;;;;5043210;28;20053;-78
2023/08/03 12:23:48;;;;;;;8.07;3.38;;;31.30;96.70;;;;;;5051793;28;20623;-79
2023/08/03 12:26:16;;;;;;;4.55;2.50;;;31.30;96.70;;;;;;5052996;28;20041;-78
2023/08/03 12:28:44;;;;;;;7.05;3.03;;;31.40;96.70;;;;;;5034390;28;20140;-78
2023/08/03 12:31:12;;;;;;;8.07;3.05;;;31.30;96.70;;;;;;5051251;28;20519;-77
2023/08/03 12:33:41;;;;;;;15.30;4.25;;;31.40;96.70;;;;;;5064267;28;20131;-79
2023/08/03 12:36:10;;;;;;;36.92;7.03;;;31.50;96.70;;;;;;5062951;28;20165;-78
2023/08/03 12:38:40;;;;;;;6.43;3.25;;;31.30;96.70;;;;;;5064333;28;20040;-80
2023/08/03 12:41:08;;;;;;;3.83;2.83;;;31.20;96.70;;;;;;5064822;28;20048;-79
2023/08/03 12:43:36;;;;;;;8.10;3.25;;;31.20;96.70;;;;;;5062966;28;20090;-80
2023/08/03 12:46:05;;;;;;;5.93;3.20;;;31.20;96.70;;;;;;5063337;28;20072;-80
2023/08/03 12:48:34;;;;;;;8.40;3.50;;;31.30;96.70;;;;;;5064517;28;20043;-80
2023/08/03 12:51:02;;;;;;;5.70;2.88;;;31.50;96.70;;;;;;5057811;28;20609;-80
2023/08/03 12:53:31;;;;;;;5.13;2.90;;;31.40;96.70;;;;;;5063314;28;20525;-79
2023/08/03 12:56:01;;;;;;;6.50;3.05;;;31.30;96.70;;;;;;5063418;28;20048;-81
2023/08/03 12:58:30;;;;;;;7.22;3.28;;;31.40;96.70;;;;;;5062061;28;20049;-81
2023/08/03 13:00:59;;;;;;;5.95;2.97;;;31.70;96.70;;;;;;5047735;28;20044;-79
2023/08/03 13:03:28;;;;;;;5.13;2.70;;;31.70;96.70;;;;;;5062999;28;20094;-79